createdAt,value
2022-10-28T00:00:46.573Z,58.48
2022-10-28T00:01:48.283Z,59.16
2022-10-28T00:02:50.114Z,58.91
2022-10-28T00:03:54.675Z,58.94
2022-10-28T00:04:56.321Z,59.17
2022-10-28T00:06:05.848Z,58.69
2022-10-28T00:07:07.515Z,58.93
2022-10-28T00:08:09.533Z,59.20
2022-10-28T00:09:12.280Z,59.32
2022-10-28T00:10:14.195Z,59.25
2022-10-28T00:11:19.453Z,58.90
2022-10-28T00:12:21.116Z,59.13
2022-10-28T00:13:22.770Z,59.34
2022-10-28T00:14:24.415Z,58.44
2022-10-28T00:15:26.202Z,59.02
2022-10-28T00:16:30.999Z,60.01
2022-10-28T00:17:32.751Z,59.76
2022-10-28T00:18:34.431Z,59.06
2022-10-28T00:19:36.092Z,59.54
2022-10-28T00:20:37.780Z,60.37
2022-10-28T00:21:41.777Z,59.83
2022-10-28T00:22:43.764Z,60.29
2022-10-28T00:23:45.847Z,60.29
2022-10-28T00:24:47.492Z,59.55
2022-10-28T00:25:49.138Z,60.91
2022-10-28T00:26:50.849Z,60.94
2022-10-28T00:27:53.062Z,61.43
2022-10-28T00:29:00.429Z,60.39
2022-10-28T00:30:02.287Z,59.75
2022-10-28T00:31:08.551Z,59.78
2022-10-28T00:32:10.202Z,59.83
2022-10-28T00:33:11.899Z,59.32
2022-10-28T00:34:16.090Z,59.10
2022-10-28T00:35:17.749Z,59.53
2022-10-28T00:36:22.502Z,60.79
2022-10-28T00:37:24.412Z,59.76
2022-10-28T00:38:26.046Z,59.33
2022-10-28T00:39:28.132Z,59.24
2022-10-28T00:40:34.763Z,60.20
2022-10-28T00:41:39.243Z,59.82
2022-10-28T00:42:40.919Z,58.94
2022-10-28T00:43:46.800Z,59.44
2022-10-28T00:45:09.252Z,59.19
2022-10-28T00:46:42.705Z,58.85
2022-10-28T00:48:02.300Z,58.94
2022-10-28T00:49:11.005Z,58.54
2022-10-28T00:50:24.559Z,58.50
2022-10-28T00:51:27.852Z,58.13
2022-10-28T00:52:31.812Z,58.24
2022-10-28T00:53:33.858Z,58.06
2022-10-28T00:54:37.952Z,59.15
2022-10-28T00:55:40.278Z,58.70
2022-10-28T00:56:47.018Z,58.24
2022-10-28T00:57:49.918Z,57.38
2022-10-28T00:58:55.343Z,58.51
2022-10-28T00:59:58.565Z,58.07
2022-10-28T01:01:00.684Z,57.68
2022-10-28T01:02:02.824Z,57.80
2022-10-28T01:03:04.707Z,57.95
2022-10-28T01:04:07.535Z,58.76
2022-10-28T01:05:11.058Z,58.51
2022-10-28T01:06:14.385Z,58.36
2022-10-28T01:07:17.187Z,57.85
2022-10-28T01:08:18.985Z,57.47
2022-10-28T01:09:20.721Z,57.76
2022-10-28T01:10:29.003Z,58.62
2022-10-28T01:12:01.610Z,58.19
2022-10-28T01:13:11.602Z,58.20
2022-10-28T01:14:27.677Z,58.56
2022-10-28T01:15:42.609Z,58.83
2022-10-28T01:16:59.637Z,58.30
2022-10-28T01:18:16.452Z,58.51
2022-10-28T01:19:47.108Z,58.96
2022-10-28T01:21:16.995Z,58.46
2022-10-28T01:22:27.281Z,58.40
2022-10-28T01:23:56.280Z,57.95
2022-10-28T01:25:03.763Z,57.94
2022-10-28T01:26:52.993Z,58.17
2022-10-28T01:28:09.143Z,57.78
2022-10-28T01:29:35.275Z,58.17
2022-10-28T01:30:54.537Z,58.88
2022-10-28T01:32:04.130Z,58.51
2022-10-28T01:33:31.012Z,58.35
2022-10-28T01:34:43.998Z,58.31
2022-10-28T01:35:53.003Z,58.41
2022-10-28T01:37:00.661Z,58.63
2022-10-28T01:38:09.934Z,58.90
2022-10-28T01:39:23.769Z,58.80
2022-10-28T01:40:25.354Z,58.56
2022-10-28T01:41:51.905Z,58.28
2022-10-28T01:43:06.544Z,58.47
2022-10-28T01:44:26.537Z,58.37
2022-10-28T01:45:31.160Z,58.10
2022-10-28T01:46:47.621Z,58.59
2022-10-28T01:47:55.555Z,58.49
2022-10-28T01:49:02.969Z,58.47
2022-10-28T01:50:29.732Z,58.64
2022-10-28T01:52:02.030Z,58.70
2022-10-28T01:53:14.626Z,58.66
2022-10-28T01:54:20.914Z,59.13
2022-10-28T01:55:37.651Z,59.13
2022-10-28T01:56:42.725Z,58.58
2022-10-28T01:57:46.495Z,58.75
2022-10-28T01:58:50.154Z,58.69
2022-10-28T01:59:52.980Z,58.62
2022-10-28T02:00:56.061Z,58.48
2022-10-28T02:01:58.000Z,58.44
2022-10-28T02:03:00.064Z,58.95
2022-10-28T02:04:02.951Z,58.26
2022-10-28T02:05:44.542Z,58.49
2022-10-28T02:06:50.439Z,58.23
2022-10-28T02:07:59.200Z,57.47
2022-10-28T02:09:27.913Z,57.77
2022-10-28T02:10:37.618Z,57.46
2022-10-28T02:12:09.002Z,58.03
2022-10-28T02:13:13.952Z,58.49
2022-10-28T02:14:45.942Z,58.57
2022-10-28T02:15:58.590Z,58.91
2022-10-28T02:17:18.555Z,59.44
2022-10-28T02:18:40.325Z,59.70
2022-10-28T02:20:25.076Z,59.55
2022-10-28T02:21:45.244Z,59.30
2022-10-28T02:22:54.121Z,59.45
2022-10-28T02:24:10.934Z,59.51
2022-10-28T02:25:25.984Z,59.01
2022-10-28T02:26:52.739Z,59.53
2022-10-28T02:28:07.895Z,59.56
2022-10-28T02:29:12.560Z,60.16
2022-10-28T02:30:21.277Z,59.75
2022-10-28T02:31:30.360Z,60.15
2022-10-28T02:32:46.424Z,59.90
2022-10-28T02:33:53.331Z,60.04
2022-10-28T02:34:59.036Z,59.97
2022-10-28T02:36:06.047Z,60.17
2022-10-28T02:37:15.965Z,60.93
2022-10-28T02:38:24.319Z,60.66
2022-10-28T02:39:32.647Z,61.32
2022-10-28T02:40:37.614Z,61.57
2022-10-28T02:41:50.730Z,60.84
2022-10-28T02:43:03.575Z,61.64
2022-10-28T02:44:10.594Z,61.57
2022-10-28T02:45:19.179Z,61.73
2022-10-28T02:46:24.692Z,61.87
2022-10-28T02:47:31.986Z,60.99
2022-10-28T02:48:57.192Z,61.38
2022-10-28T02:50:04.017Z,61.25
2022-10-28T02:51:16.938Z,61.53
2022-10-28T02:52:22.048Z,61.37
2022-10-28T02:53:33.514Z,61.10
2022-10-28T02:54:42.972Z,61.64
2022-10-28T02:55:49.487Z,61.79
2022-10-28T02:57:03.357Z,61.57
2022-10-28T02:58:06.125Z,61.21
2022-10-28T02:59:12.779Z,61.94
2022-10-28T03:00:19.334Z,61.91
2022-10-28T03:01:21.131Z,61.76
2022-10-28T03:02:23.584Z,61.91
2022-10-28T03:03:25.413Z,62.26
2022-10-28T03:04:27.146Z,62.11
2022-10-28T03:05:28.836Z,61.52
2022-10-28T03:06:30.619Z,61.84
2022-10-28T03:07:32.385Z,62.10
2022-10-28T03:08:34.116Z,62.37
2022-10-28T03:09:35.782Z,61.70
2022-10-28T03:10:37.464Z,62.02
2022-10-28T03:11:39.234Z,62.14
2022-10-28T03:12:40.892Z,61.95
2022-10-28T03:13:42.624Z,61.97
2022-10-28T03:14:44.365Z,61.30
2022-10-28T03:15:47.557Z,61.68
2022-10-28T03:16:49.287Z,61.69
2022-10-28T03:17:51.250Z,61.43
2022-10-28T03:18:53.745Z,61.68
2022-10-28T03:19:55.409Z,62.50
2022-10-28T03:20:59.010Z,61.97
2022-10-28T03:22:00.927Z,61.97
2022-10-28T03:23:02.650Z,61.94
2022-10-28T03:24:04.566Z,62.48
2022-10-28T03:25:06.438Z,62.42
2022-10-28T03:26:08.105Z,62.61
2022-10-28T03:27:09.784Z,62.24
2022-10-28T03:28:11.457Z,61.53
2022-10-28T03:29:13.187Z,61.37
2022-10-28T03:30:15.005Z,62.27
2022-10-28T03:31:17.422Z,62.29
2022-10-28T03:32:19.149Z,62.65
2022-10-28T03:33:20.857Z,62.16
2022-10-28T03:34:22.495Z,61.63
2022-10-28T03:35:24.537Z,62.09
2022-10-28T03:36:26.205Z,61.78
2022-10-28T03:37:27.861Z,62.39
2022-10-28T03:38:29.631Z,63.07
2022-10-28T03:39:31.318Z,63.42
2022-10-28T03:40:34.333Z,63.51
2022-10-28T03:41:36.114Z,63.51
2022-10-28T03:42:40.403Z,63.63
2022-10-28T03:43:43.153Z,62.79
2022-10-28T03:44:44.791Z,62.40
2022-10-28T03:45:47.837Z,62.99
2022-10-28T03:46:49.506Z,62.41
2022-10-28T03:47:51.445Z,62.86
2022-10-28T03:48:53.504Z,61.99
2022-10-28T03:49:55.436Z,62.18
2022-10-28T03:50:57.089Z,62.46
2022-10-28T03:51:58.744Z,62.02
2022-10-28T03:53:00.678Z,62.45
2022-10-28T03:54:02.394Z,62.36
2022-10-28T03:55:04.420Z,62.03
2022-10-28T03:56:06.285Z,62.57
2022-10-28T03:57:07.953Z,61.97
2022-10-28T03:58:09.625Z,61.72
2022-10-28T03:59:13.162Z,61.79
2022-10-28T04:00:16.845Z,61.96
2022-10-28T04:01:18.634Z,61.66
2022-10-28T04:02:20.453Z,62.19
2022-10-28T04:03:23.582Z,62.00
2022-10-28T04:04:28.438Z,62.85
2022-10-28T04:05:32.475Z,64.01
2022-10-28T04:06:34.139Z,63.62
2022-10-28T04:07:35.886Z,63.09
2022-10-28T04:08:37.734Z,62.56
2022-10-28T04:09:39.413Z,62.58
2022-10-28T04:10:46.245Z,62.43
2022-10-28T04:11:49.534Z,62.70
2022-10-28T04:12:51.317Z,62.23
2022-10-28T04:13:53.090Z,62.24
2022-10-28T04:14:54.851Z,62.13
2022-10-28T04:15:56.773Z,62.53
2022-10-28T04:16:58.657Z,62.07
2022-10-28T04:18:00.444Z,62.51
2022-10-28T04:19:02.458Z,62.64
2022-10-28T04:20:04.562Z,62.17
2022-10-28T04:21:06.346Z,62.02
2022-10-28T04:22:09.248Z,61.63
2022-10-28T04:23:15.574Z,62.90
2022-10-28T04:24:17.280Z,63.36
2022-10-28T04:25:18.936Z,62.52
2022-10-28T04:26:20.655Z,62.41
2022-10-28T04:27:22.307Z,62.23
2022-10-28T04:28:26.728Z,62.21
2022-10-28T04:29:28.429Z,62.66
2022-10-28T04:30:30.098Z,61.95
2022-10-28T04:31:31.774Z,61.62
2022-10-28T04:32:33.499Z,62.32
2022-10-28T04:33:35.177Z,62.08
2022-10-28T04:34:36.817Z,62.42
2022-10-28T04:35:39.402Z,61.98
2022-10-28T04:36:41.094Z,62.14
2022-10-28T04:37:43.000Z,61.92
2022-10-28T04:38:44.676Z,61.98
2022-10-28T04:39:46.318Z,61.78
2022-10-28T04:40:49.305Z,61.07
2022-10-28T04:41:51.014Z,61.32
2022-10-28T04:42:53.014Z,61.00
2022-10-28T04:43:56.419Z,60.69
2022-10-28T04:44:58.146Z,60.98
2022-10-28T04:46:05.932Z,60.76
2022-10-28T04:47:07.907Z,60.98
2022-10-28T04:48:10.730Z,61.76
2022-10-28T04:49:12.442Z,61.45
2022-10-28T04:50:14.351Z,62.47
2022-10-28T04:51:16.010Z,62.50
2022-10-28T04:52:17.706Z,62.75
2022-10-28T04:53:19.405Z,62.91
2022-10-28T04:54:21.050Z,63.37
2022-10-28T04:55:22.718Z,62.94
2022-10-28T04:56:24.414Z,62.85
2022-10-28T04:57:26.158Z,63.39
2022-10-28T04:58:27.834Z,63.15
2022-10-28T04:59:29.488Z,63.81
2022-10-28T05:00:31.697Z,64.22
2022-10-28T05:01:33.563Z,65.17
2022-10-28T05:02:35.314Z,64.88
2022-10-28T05:03:37.249Z,65.68
2022-10-28T05:04:38.941Z,66.03
2022-10-28T05:05:40.996Z,64.90
2022-10-28T05:06:42.734Z,64.29
2022-10-28T05:07:44.652Z,64.90
2022-10-28T05:08:46.354Z,65.07
2022-10-28T05:09:48.048Z,65.24
2022-10-28T05:10:51.222Z,64.57
2022-10-28T05:11:52.897Z,64.48
2022-10-28T05:12:54.556Z,64.64
2022-10-28T05:13:56.331Z,64.49
2022-10-28T05:14:57.992Z,64.91
2022-10-28T05:15:59.694Z,64.24
2022-10-28T05:17:01.445Z,63.77
2022-10-28T05:18:03.177Z,64.25
2022-10-28T05:19:04.948Z,64.50
2022-10-28T05:20:07.714Z,64.87
2022-10-28T05:21:09.415Z,64.80
2022-10-28T05:22:11.163Z,65.50
2022-10-28T05:23:13.251Z,65.83
2022-10-28T05:24:14.945Z,65.71
2022-10-28T05:25:17.367Z,65.58
2022-10-28T05:26:19.388Z,66.13
2022-10-28T05:27:21.179Z,66.14
2022-10-28T05:28:22.890Z,66.42
2022-10-28T05:29:24.576Z,66.38
2022-10-28T05:30:27.257Z,66.99
2022-10-28T05:31:28.904Z,66.64
2022-10-28T05:32:30.585Z,66.58
2022-10-28T05:33:33.740Z,65.86
2022-10-28T05:34:36.295Z,65.82
2022-10-28T05:35:38.947Z,66.07
2022-10-28T05:36:40.588Z,66.33
2022-10-28T05:37:43.606Z,66.25
2022-10-28T05:38:45.629Z,65.51
2022-10-28T05:39:47.447Z,65.71
2022-10-28T05:40:49.225Z,65.59
2022-10-28T05:41:50.863Z,65.37
2022-10-28T05:42:52.824Z,65.66
2022-10-28T05:43:54.770Z,66.05
2022-10-28T05:44:56.418Z,65.15
2022-10-28T05:45:58.418Z,65.60
2022-10-28T05:47:00.130Z,65.08
2022-10-28T05:48:02.392Z,65.78
2022-10-28T05:49:04.371Z,65.61
2022-10-28T05:50:06.400Z,65.07
2022-10-28T05:51:08.064Z,64.27
2022-10-28T05:52:09.768Z,64.54
2022-10-28T05:53:11.486Z,64.75
2022-10-28T05:54:13.333Z,64.21
2022-10-28T05:55:15.296Z,64.02
2022-10-28T05:56:20.076Z,64.36
2022-10-28T05:57:21.747Z,64.07
2022-10-28T05:58:23.438Z,64.36
2022-10-28T05:59:25.105Z,64.81
2022-10-28T06:00:27.390Z,64.57
2022-10-28T06:01:29.339Z,64.39
2022-10-28T06:02:31.050Z,63.83
2022-10-28T06:03:32.814Z,62.36
2022-10-28T06:04:34.570Z,61.82
2022-10-28T06:05:41.965Z,61.28
2022-10-28T06:06:43.672Z,61.55
2022-10-28T06:07:45.349Z,61.42
2022-10-28T06:08:47.053Z,60.78
2022-10-28T06:09:50.829Z,60.74
2022-10-28T06:10:55.686Z,60.41
2022-10-28T06:11:57.340Z,60.07
2022-10-28T06:12:59.041Z,59.72
2022-10-28T06:14:00.939Z,60.47
2022-10-28T06:15:03.418Z,60.67
2022-10-28T06:16:05.316Z,60.74
2022-10-28T06:17:07.021Z,59.96
2022-10-28T06:18:08.729Z,59.63
2022-10-28T06:19:10.385Z,59.58
2022-10-28T06:20:12.055Z,59.34
2022-10-28T06:21:13.763Z,59.52
2022-10-28T06:22:15.448Z,58.74
2022-10-28T06:23:17.171Z,58.86
2022-10-28T06:24:18.841Z,58.49
2022-10-28T06:25:21.926Z,58.49
2022-10-28T06:26:23.574Z,58.25
2022-10-28T06:27:25.247Z,58.10
2022-10-28T06:28:27.310Z,58.28
2022-10-28T06:29:30.739Z,57.51
2022-10-28T06:30:32.388Z,56.67
2022-10-28T06:31:34.135Z,57.17
2022-10-28T06:32:35.820Z,56.50
2022-10-28T06:33:38.010Z,56.54
2022-10-28T06:34:39.713Z,58.06
2022-10-28T06:35:41.792Z,57.49
2022-10-28T06:36:43.445Z,59.44
2022-10-28T06:37:45.348Z,59.80
2022-10-28T06:38:47.047Z,58.76
2022-10-28T06:39:52.206Z,58.54
2022-10-28T06:40:57.557Z,58.48
2022-10-28T06:41:59.259Z,57.99
2022-10-28T06:43:03.349Z,57.29
2022-10-28T06:44:05.200Z,56.70
2022-10-28T06:45:07.247Z,56.79
2022-10-28T06:46:08.905Z,54.31
2022-10-28T06:47:12.379Z,53.21
2022-10-28T06:48:14.442Z,50.74
2022-10-28T06:49:16.740Z,51.17
2022-10-28T06:50:18.788Z,50.53
2022-10-28T06:51:20.831Z,49.01
2022-10-28T06:52:22.506Z,48.25
2022-10-28T06:53:25.424Z,47.16
2022-10-28T06:54:27.343Z,45.64
2022-10-28T06:55:29.207Z,44.17
2022-10-28T06:56:30.898Z,44.26
2022-10-28T06:57:32.551Z,43.99
2022-10-28T06:58:34.211Z,42.38
2022-10-28T06:59:36.092Z,42.21
2022-10-28T07:00:37.774Z,41.26
2022-10-28T07:01:39.578Z,39.68
2022-10-28T07:02:44.266Z,40.06
2022-10-28T07:03:47.782Z,38.67
2022-10-28T07:04:49.436Z,37.89
2022-10-28T07:05:51.842Z,36.69
2022-10-28T07:06:57.663Z,37.06
2022-10-28T07:07:59.400Z,35.35
2022-10-28T07:09:01.099Z,35.12
2022-10-28T07:10:06.152Z,34.93
2022-10-28T07:11:08.077Z,34.54
2022-10-28T07:12:09.782Z,33.43
2022-10-28T07:13:11.566Z,33.46
2022-10-28T07:14:13.216Z,33.41
2022-10-28T07:15:14.864Z,32.98
2022-10-28T07:16:16.507Z,32.46
2022-10-28T07:17:18.207Z,31.83
2022-10-28T07:18:20.431Z,31.82
2022-10-28T07:19:22.788Z,31.07
2022-10-28T07:20:26.323Z,31.23
2022-10-28T07:21:29.871Z,30.60
2022-10-28T07:22:31.544Z,30.26
2022-10-28T07:23:34.348Z,30.30
2022-10-28T07:24:36.036Z,29.07
2022-10-28T07:25:37.733Z,29.16
2022-10-28T07:26:39.432Z,28.56
2022-10-28T07:27:41.111Z,28.06
2022-10-28T07:28:43.246Z,27.81
2022-10-28T07:29:44.926Z,27.53
2022-10-28T07:30:46.693Z,27.72
2022-10-28T07:31:48.330Z,27.47
2022-10-28T07:32:50.039Z,27.02
2022-10-28T07:33:53.360Z,27.36
2022-10-28T07:34:55.001Z,26.94
2022-10-28T07:35:56.751Z,27.36
2022-10-28T07:36:58.507Z,26.99
2022-10-28T07:38:00.299Z,26.00
2022-10-28T07:39:04.542Z,25.61
2022-10-28T07:40:07.340Z,26.23
2022-10-28T07:41:10.156Z,25.34
2022-10-28T07:42:11.842Z,25.60
2022-10-28T07:43:13.784Z,24.84
2022-10-28T07:44:15.562Z,25.66
2022-10-28T07:45:18.203Z,24.30
2022-10-28T07:46:20.192Z,24.32
2022-10-28T07:47:22.340Z,24.18
2022-10-28T07:48:24.545Z,23.64
2022-10-28T07:49:26.307Z,24.20
2022-10-28T07:50:28.052Z,24.03
2022-10-28T07:51:29.918Z,23.80
2022-10-28T07:52:31.796Z,23.20
2022-10-28T07:53:34.419Z,22.85
2022-10-28T07:54:36.074Z,22.95
2022-10-28T07:55:37.829Z,22.81
2022-10-28T07:56:39.509Z,24.36
2022-10-28T07:57:41.198Z,22.59
2022-10-28T07:58:44.865Z,22.42
2022-10-28T07:59:46.933Z,22.98
2022-10-28T08:00:48.869Z,22.90
2022-10-28T08:01:50.673Z,22.46
2022-10-28T08:02:52.380Z,23.40
2022-10-28T08:03:54.160Z,22.09
2022-10-28T08:04:56.925Z,22.30
2022-10-28T08:06:07.685Z,22.97
2022-10-28T08:07:09.363Z,22.35
2022-10-28T08:08:11.079Z,21.64
2022-10-28T08:09:12.779Z,21.86
2022-10-28T08:10:14.511Z,21.74
2022-10-28T08:11:22.725Z,20.83
2022-10-28T08:12:24.564Z,21.41
2022-10-28T08:13:26.220Z,21.37
2022-10-28T08:14:27.870Z,21.76
2022-10-28T08:15:29.951Z,21.00
2022-10-28T08:16:31.663Z,21.29
2022-10-28T08:17:33.403Z,21.95
2022-10-28T08:18:36.399Z,21.85
2022-10-28T08:19:38.100Z,20.90
2022-10-28T08:20:39.734Z,20.89
2022-10-28T08:21:41.400Z,20.94
2022-10-28T08:22:43.143Z,20.77
2022-10-28T08:23:47.805Z,21.12
2022-10-28T08:24:49.473Z,20.08
2022-10-28T08:25:52.837Z,20.25
2022-10-28T08:26:54.479Z,20.99
2022-10-28T08:27:57.655Z,20.26
2022-10-28T08:29:01.618Z,20.05
2022-10-28T08:30:03.751Z,19.81
2022-10-28T08:31:09.566Z,20.13
2022-10-28T08:32:11.490Z,20.30
2022-10-28T08:33:14.355Z,19.98
2022-10-28T08:34:16.219Z,20.19
2022-10-28T08:35:17.943Z,20.19
2022-10-28T08:36:19.688Z,20.55
2022-10-28T08:37:21.457Z,19.33
2022-10-28T08:38:23.169Z,19.26
2022-10-28T08:39:24.893Z,19.64
2022-10-28T08:40:45.769Z,19.38
2022-10-28T08:41:59.999Z,19.71
2022-10-28T08:43:14.780Z,19.12
2022-10-28T08:44:53.628Z,19.07
2022-10-28T08:46:20.703Z,18.83
2022-10-28T08:47:25.048Z,18.32
2022-10-28T08:48:33.665Z,18.76
2022-10-28T08:49:39.426Z,19.17
2022-10-28T08:50:52.211Z,18.82
2022-10-28T08:51:59.588Z,18.94
2022-10-28T08:53:28.328Z,19.08
2022-10-28T08:54:37.508Z,19.43
2022-10-28T08:55:50.238Z,18.39
2022-10-28T08:56:55.069Z,18.20
2022-10-28T08:58:22.326Z,18.70
2022-10-28T08:59:37.860Z,17.69
2022-10-28T09:00:40.713Z,18.55
2022-10-28T09:01:51.354Z,18.20
2022-10-28T09:03:22.510Z,18.73
2022-10-28T09:04:40.401Z,18.56
2022-10-28T09:05:48.005Z,18.39
2022-10-28T09:06:49.727Z,18.15
2022-10-28T09:07:52.055Z,17.80
2022-10-28T09:08:54.383Z,18.05
2022-10-28T09:09:56.314Z,18.17
2022-10-28T09:11:00.567Z,17.57
2022-10-28T09:12:17.334Z,17.36
2022-10-28T09:13:29.987Z,17.22
2022-10-28T09:14:47.971Z,18.05
2022-10-28T09:16:09.391Z,18.29
2022-10-28T09:17:26.312Z,17.72
2022-10-28T09:18:48.154Z,18.21
2022-10-28T09:19:49.763Z,18.49
2022-10-28T09:21:04.977Z,17.94
2022-10-28T09:22:31.481Z,18.64
2022-10-28T09:23:37.570Z,17.61
2022-10-28T09:24:53.069Z,18.03
2022-10-28T09:26:06.815Z,19.07
2022-10-28T09:27:23.341Z,18.86
2022-10-28T09:28:44.720Z,18.26
2022-10-28T09:30:11.807Z,17.76
2022-10-28T09:31:28.976Z,17.44
2022-10-28T09:32:36.416Z,17.94
2022-10-28T09:33:42.181Z,17.87
2022-10-28T09:35:06.469Z,17.43
2022-10-28T09:36:17.201Z,17.69
2022-10-28T09:37:24.379Z,18.21
2022-10-28T09:38:26.051Z,18.36
2022-10-28T09:39:31.624Z,17.64
2022-10-28T09:40:36.767Z,18.03
2022-10-28T09:41:41.540Z,18.15
2022-10-28T09:42:58.049Z,17.66
2022-10-28T09:44:25.280Z,17.35
2022-10-28T09:45:31.558Z,17.68
2022-10-28T09:46:37.019Z,18.06
2022-10-28T09:47:46.079Z,18.00
2022-10-28T09:48:59.904Z,17.93
2022-10-28T09:50:08.506Z,18.10
2022-10-28T09:51:21.315Z,18.19
2022-10-28T09:52:28.574Z,18.10
2022-10-28T09:53:42.202Z,17.98
2022-10-28T09:54:50.623Z,19.25
2022-10-28T09:55:52.493Z,18.60
2022-10-28T09:56:55.071Z,18.13
2022-10-28T09:57:57.088Z,18.47
2022-10-28T09:59:03.157Z,18.09
2022-10-28T10:00:05.719Z,17.92
2022-10-28T10:01:07.433Z,18.54
2022-10-28T10:02:27.498Z,18.08
2022-10-28T10:03:29.475Z,18.13
2022-10-28T10:04:31.526Z,18.27
2022-10-28T10:05:38.036Z,17.99
2022-10-28T10:06:42.909Z,18.55
2022-10-28T10:07:53.921Z,18.37
2022-10-28T10:08:57.133Z,18.41
2022-10-28T10:11:12.088Z,17.79
2022-10-28T10:12:14.508Z,18.05
2022-10-28T10:13:21.184Z,18.05
2022-10-28T10:14:29.108Z,18.25
2022-10-28T10:15:36.503Z,17.96
2022-10-28T10:16:43.634Z,18.61
2022-10-28T10:17:47.290Z,18.20
2022-10-28T10:18:53.332Z,17.91
2022-10-28T10:20:00.242Z,17.86
2022-10-28T10:21:02.841Z,18.01
2022-10-28T10:22:04.549Z,18.33
2022-10-28T10:23:32.026Z,17.75
2022-10-28T10:24:36.203Z,17.58
2022-10-28T10:25:37.908Z,18.08
2022-10-28T10:26:39.605Z,18.36
2022-10-28T10:27:41.338Z,18.95
2022-10-28T10:28:48.940Z,19.08
2022-10-28T10:29:53.039Z,19.18
2022-10-28T10:31:00.079Z,19.17
2022-10-28T10:32:19.257Z,19.63
2022-10-28T10:33:51.315Z,18.57
2022-10-28T10:35:02.040Z,18.45
2022-10-28T10:36:09.721Z,18.36
2022-10-28T10:37:21.359Z,19.64
2022-10-28T10:38:23.121Z,19.23
2022-10-28T10:39:39.997Z,19.02
2022-10-28T10:40:49.674Z,20.81
2022-10-28T10:41:51.348Z,20.88
2022-10-28T10:43:12.908Z,20.18
2022-10-28T10:44:21.438Z,20.83
2022-10-28T10:45:27.696Z,20.95
2022-10-28T10:46:29.483Z,20.63
2022-10-28T10:47:31.222Z,20.23
2022-10-28T10:48:36.628Z,20.25
2022-10-28T10:49:38.495Z,21.69
2022-10-28T10:50:45.565Z,20.72
2022-10-28T10:51:57.184Z,21.15
2022-10-28T10:53:01.617Z,21.47
2022-10-28T10:54:03.627Z,20.77
2022-10-28T10:55:38.202Z,20.98
2022-10-28T10:56:40.110Z,20.95
2022-10-28T10:57:46.860Z,20.42
2022-10-28T10:58:54.415Z,20.75
2022-10-28T10:59:57.404Z,20.94
2022-10-28T11:01:02.977Z,21.09
2022-10-28T11:02:39.876Z,22.81
2022-10-28T11:03:54.252Z,21.87
2022-10-28T11:05:00.015Z,22.32
2022-10-28T11:06:23.452Z,23.08
2022-10-28T11:07:25.996Z,22.00
2022-10-28T11:08:36.863Z,22.54
2022-10-28T11:09:40.273Z,22.72
2022-10-28T11:10:41.941Z,22.21
2022-10-28T11:11:44.493Z,25.39
2022-10-28T11:12:55.612Z,23.87
2022-10-28T11:14:09.769Z,26.16
2022-10-28T11:15:17.405Z,25.41
2022-10-28T11:16:24.936Z,25.36
2022-10-28T11:18:43.923Z,25.67
2022-10-28T11:19:45.613Z,26.10
2022-10-28T11:21:13.281Z,25.86
2022-10-28T11:22:37.728Z,27.53
2022-10-28T11:24:03.856Z,27.05
2022-10-28T11:25:46.010Z,27.27
2022-10-28T11:27:01.469Z,27.72
2022-10-28T11:28:33.722Z,26.64
2022-10-28T11:29:35.440Z,27.80
2022-10-28T11:30:50.845Z,28.25
2022-10-28T11:32:13.773Z,27.48
2022-10-28T11:33:35.070Z,27.38
2022-10-28T11:35:07.200Z,26.74
2022-10-28T11:36:25.672Z,28.25
2022-10-28T11:37:45.448Z,27.74
2022-10-28T11:39:18.282Z,27.61
2022-10-28T11:40:25.572Z,27.75
2022-10-28T11:41:54.874Z,27.51
2022-10-28T11:43:19.999Z,28.72
2022-10-28T11:44:27.769Z,28.39
2022-10-28T11:45:39.125Z,27.80
2022-10-28T11:47:04.217Z,27.53
2022-10-28T11:48:22.085Z,27.55
2022-10-28T11:49:59.236Z,28.40
2022-10-28T11:51:32.981Z,28.53
2022-10-28T11:53:06.903Z,28.48
2022-10-28T11:54:39.717Z,29.62
2022-10-28T11:55:41.348Z,28.28
2022-10-28T11:56:48.419Z,28.78
2022-10-28T11:58:06.351Z,27.46
2022-10-28T11:59:32.607Z,27.68
2022-10-28T12:00:40.355Z,28.73
2022-10-28T12:01:50.651Z,29.04
2022-10-28T12:03:21.396Z,28.90
2022-10-28T12:04:31.382Z,29.05
2022-10-28T12:06:03.189Z,29.23
2022-10-28T12:07:26.634Z,29.58
2022-10-28T12:08:59.046Z,29.60
2022-10-28T12:10:15.654Z,29.88
2022-10-28T12:11:36.033Z,30.16
2022-10-28T12:13:05.783Z,29.89
2022-10-28T12:14:22.401Z,30.50
2022-10-28T12:15:39.211Z,30.39
2022-10-28T12:16:45.191Z,29.76
2022-10-28T12:18:08.074Z,29.49
2022-10-28T12:19:43.567Z,30.56
2022-10-28T12:21:09.795Z,30.58
2022-10-28T12:22:33.870Z,31.32
2022-10-28T12:23:39.229Z,30.39
2022-10-28T12:24:44.826Z,31.56
2022-10-28T12:25:51.722Z,30.77
2022-10-28T12:27:00.244Z,30.30
2022-10-28T12:28:07.668Z,29.62
2022-10-28T12:29:28.482Z,29.26
2022-10-28T12:30:33.243Z,29.24
2022-10-28T12:31:44.561Z,29.00
2022-10-28T12:32:48.627Z,29.17
2022-10-28T12:33:55.808Z,30.11
2022-10-28T12:35:19.698Z,30.51
2022-10-28T12:36:32.109Z,29.63
2022-10-28T12:37:44.765Z,29.23
2022-10-28T12:39:00.205Z,28.74
2022-10-28T12:40:17.184Z,29.49
2022-10-28T12:41:43.152Z,29.35
2022-10-28T12:42:58.604Z,28.57
2022-10-28T12:44:11.172Z,29.32
2022-10-28T12:45:17.067Z,30.25
2022-10-28T12:46:37.574Z,29.31
2022-10-28T12:47:46.512Z,29.92
2022-10-28T12:48:54.569Z,29.79
2022-10-28T12:50:08.217Z,30.85
2022-10-28T12:51:18.574Z,30.05
2022-10-28T12:52:26.231Z,29.88
2022-10-28T12:53:41.281Z,30.10
2022-10-28T12:56:37.555Z,31.74
2022-10-28T12:57:44.188Z,31.09
2022-10-28T12:59:06.059Z,30.88
2022-10-28T13:00:13.844Z,30.46
2022-10-28T13:01:21.319Z,31.38
2022-10-28T13:02:31.476Z,32.38
2022-10-28T13:03:33.223Z,31.59
2022-10-28T13:04:37.251Z,32.02
2022-10-28T13:05:51.290Z,31.51
2022-10-28T13:07:07.868Z,31.28
2022-10-28T13:08:30.425Z,30.36
2022-10-28T13:09:55.206Z,31.15
2022-10-28T13:11:27.790Z,31.34
2022-10-28T13:12:35.215Z,31.60
2022-10-28T13:13:45.645Z,33.04
2022-10-28T13:15:02.555Z,32.24
2022-10-28T13:16:31.715Z,31.73
2022-10-28T13:17:59.108Z,31.24
2022-10-28T13:19:19.572Z,31.35
2022-10-28T13:20:58.370Z,31.80
2022-10-28T13:22:05.714Z,31.46
2022-10-28T13:23:59.507Z,31.29
2022-10-28T13:25:31.333Z,32.34
2022-10-28T13:26:37.944Z,32.46
2022-10-28T13:27:40.147Z,33.30
2022-10-28T13:28:47.869Z,31.86
2022-10-28T13:29:53.731Z,32.01
2022-10-28T13:31:01.163Z,32.29
2022-10-28T13:32:03.074Z,32.30
2022-10-28T13:33:09.769Z,31.84
2022-10-28T13:34:14.493Z,31.46
2022-10-28T13:35:26.563Z,31.54
2022-10-28T13:36:36.730Z,33.11
2022-10-28T13:37:39.706Z,32.61
2022-10-28T13:38:42.014Z,32.30
2022-10-28T13:39:45.226Z,32.60
2022-10-28T13:40:46.877Z,32.42
2022-10-28T13:41:49.116Z,31.06
2022-10-28T13:42:50.898Z,32.11
2022-10-28T13:43:54.496Z,33.18
2022-10-28T13:45:06.639Z,31.73
2022-10-28T13:46:08.339Z,31.40
2022-10-28T13:47:28.098Z,32.25
2022-10-28T13:48:29.806Z,34.07
2022-10-28T13:49:35.579Z,32.71
2022-10-28T13:50:37.567Z,31.52
2022-10-28T13:51:46.922Z,31.17
2022-10-28T13:53:27.112Z,32.63
2022-10-28T13:54:53.372Z,31.93
2022-10-28T13:55:58.488Z,32.30
2022-10-28T13:57:08.936Z,33.29
2022-10-28T13:58:23.312Z,32.20
2022-10-28T13:59:29.451Z,32.70
2022-10-28T14:00:31.046Z,32.47
2022-10-28T14:01:36.909Z,32.33
2022-10-28T14:02:42.374Z,33.05
2022-10-28T14:03:52.397Z,33.21
2022-10-28T14:04:56.664Z,33.26
2022-10-28T14:06:00.566Z,32.38
2022-10-28T14:07:12.829Z,32.60
2022-10-28T14:08:29.809Z,32.74
2022-10-28T14:09:35.278Z,32.84
2022-10-28T14:10:40.293Z,32.72
2022-10-28T14:11:42.559Z,32.93
2022-10-28T14:13:09.426Z,32.94
2022-10-28T14:14:16.791Z,32.67
2022-10-28T14:15:25.013Z,33.02
2022-10-28T14:16:40.367Z,33.11
2022-10-28T14:17:48.114Z,33.31
2022-10-28T14:19:24.132Z,33.28
2022-10-28T14:20:36.552Z,33.67
2022-10-28T14:21:45.262Z,33.42
2022-10-28T14:22:47.583Z,33.98
2022-10-28T14:23:49.225Z,33.94
2022-10-28T14:24:50.916Z,33.45
2022-10-28T14:25:54.718Z,33.75
2022-10-28T14:27:05.586Z,33.84
2022-10-28T14:28:32.092Z,34.11
2022-10-28T14:29:44.529Z,34.12
2022-10-28T14:31:11.722Z,34.42
2022-10-28T14:32:31.710Z,34.24
2022-10-28T14:33:34.209Z,34.46
2022-10-28T14:34:42.037Z,34.50
2022-10-28T14:35:47.197Z,34.60